Time;durP1;ratioP1;P1;durP2;ratioP2;P2;SDS_P1;SDS_P2;PMS_P1;PMS_P2;Temp;Humidity;BMP_temperature;BMP_pressure;BME280_temperature;BME280_humidity;BME280_pressure;Samples;Min_cycle;Max_cycle;Signal;HPM_P1;HPM_P2
2021/06/08 00:00:21;;;;;;;19.73;13.95;;;18.90;94.50;;;;;;4974687;28;20015;-89
2021/06/08 00:02:50;;;;;;;21.35;14.63;;;18.90;94.60;;;;;;4974386;28;20019;-88
2021/06/08 00:05:18;;;;;;;19.08;13.40;;;18.90;94.60;;;;;;4974724;28;20033;-88
2021/06/08 00:07:43;;;;;;;18.35;13.07;;;18.90;94.70;;;;;;4976093;28;20027;-89
2021/06/08 00:10:09;;;;;;;19.48;13.85;;;18.90;94.60;;;;;;4979092;28;20070;-90
2021/06/08 00:12:35;;;;;;;20.85;14.88;;;18.90;94.60;;;;;;4992379;28;20085;-89
2021/06/08 00:15:02;;;;;;;19.88;14.13;;;18.90;94.70;;;;;;4974213;28;20027;-89
2021/06/08 00:17:27;;;;;;;19.73;14.40;;;18.90;94.60;;;;;;4974089;28;20023;-89
2021/06/08 00:19:53;;;;;;;20.83;14.88;;;18.90;94.70;;;;;;4974196;28;20037;-89
2021/06/08 00:22:19;;;;;;;21.85;14.68;;;18.90;94.60;;;;;;4956392;28;20034;-87
2021/06/08 00:24:44;;;;;;;23.30;15.02;;;18.80;94.60;;;;;;4973985;28;20084;-88
2021/06/08 00:27:10;;;;;;;21.48;15.50;;;18.90;94.70;;;;;;4973809;28;20026;-88
2021/06/08 00:29:35;;;;;;;22.42;15.23;;;18.90;94.70;;;;;;4974219;28;20483;-89
2021/06/08 00:32:01;;;;;;;19.73;13.98;;;18.90;94.60;;;;;;4973830;28;20042;-88
2021/06/08 00:34:27;;;;;;;25.08;14.30;;;18.90;94.60;;;;;;4973669;28;20480;-88
2021/06/08 00:36:53;;;;;;;20.27;14.30;;;18.80;94.60;;;;;;4973643;28;20027;-88
2021/06/08 00:39:18;;;;;;;21.17;14.45;;;18.80;94.70;;;;;;4956367;28;20030;-88
2021/06/08 00:41:44;;;;;;;22.23;14.30;;;18.80;94.70;;;;;;4974088;28;20067;-87
2021/06/08 00:44:16;;;;;;;21.15;15.30;;;18.90;94.80;;;;;;4973292;28;20023;-89
2021/06/08 00:46:44;;;;;;;20.50;14.52;;;18.90;94.80;;;;;;4973657;28;20124;-88
2021/06/08 00:49:10;;;;;;;21.58;16.00;;;18.90;94.80;;;;;;4973665;28;20010;-88
2021/06/08 00:51:37;;;;;;;22.50;14.95;;;18.90;94.80;;;;;;4973379;28;20045;-88
2021/06/08 00:54:06;;;;;;;21.25;14.98;;;18.90;94.70;;;;;;4973724;28;20125;-88
2021/06/08 00:56:34;;;;;;;19.95;14.40;;;18.90;94.70;;;;;;4973409;28;20023;-88
2021/06/08 00:59:00;;;;;;;20.58;14.52;;;18.90;94.80;;;;;;4973358;28;20027;-87
2021/06/08 01:01:25;;;;;;;23.83;16.00;;;19.00;94.80;;;;;;4973671;28;20023;-87
2021/06/08 01:03:51;;;;;;;25.50;17.88;;;18.90;94.70;;;;;;4973435;28;20077;-87
2021/06/08 01:06:16;;;;;;;22.75;16.20;;;18.90;94.80;;;;;;4973605;28;20107;-87
2021/06/08 01:08:42;;;;;;;21.35;15.25;;;18.90;94.80;;;;;;4978653;28;20030;-87
2021/06/08 01:11:08;;;;;;;22.33;15.05;;;18.90;94.80;;;;;;4992533;28;20059;-86
2021/06/08 01:13:33;;;;;;;21.80;15.25;;;18.90;94.80;;;;;;4977044;28;20023;-87
2021/06/08 01:15:59;;;;;;;20.83;15.27;;;18.90;94.70;;;;;;4977495;28;20027;-87
2021/06/08 01:18:25;;;;;;;20.50;14.73;;;18.80;94.70;;;;;;4977211;28;20045;-87
2021/06/08 01:21:04;;;;;;;21.35;14.77;;;18.80;94.70;;;;;;4977480;28;20023;-89
2021/06/08 01:23:31;;;;;;;23.35;15.48;;;18.80;94.70;;;;;;4973046;28;20015;-89
2021/06/08 01:25:57;;;;;;;21.90;15.23;;;18.80;94.70;;;;;;4959899;28;20022;-89
2021/06/08 01:28:24;;;;;;;22.35;14.80;;;18.80;94.70;;;;;;4977032;28;20058;-88
2021/06/08 01:30:52;;;;;;;21.73;16.08;;;18.80;94.70;;;;;;4976839;28;20046;-89
2021/06/08 01:33:21;;;;;;;23.13;17.13;;;18.70;94.70;;;;;;4959598;28;20019;-88
2021/06/08 01:35:47;;;;;;;24.90;16.90;;;18.70;94.60;;;;;;4978016;28;20019;-88
2021/06/08 01:38:14;;;;;;;23.73;17.35;;;18.70;94.60;;;;;;4976958;28;20375;-88
2021/06/08 01:40:40;;;;;;;21.15;15.68;;;18.60;94.70;;;;;;4959877;28;20023;-87
2021/06/08 01:43:06;;;;;;;23.35;15.85;;;18.70;94.80;;;;;;4992354;28;20471;-88
2021/06/08 01:45:32;;;;;;;21.90;15.68;;;18.70;94.80;;;;;;4977608;28;20051;-87
2021/06/08 01:47:58;;;;;;;22.40;16.02;;;18.60;94.90;;;;;;4977196;28;20019;-88
2021/06/08 01:50:24;;;;;;;25.25;17.02;;;18.70;94.80;;;;;;4959349;28;20027;-87
2021/06/08 01:53:05;;;;;;;24.83;16.40;;;18.70;94.80;;;;;;4976793;28;20026;-88
2021/06/08 01:55:35;;;;;;;25.60;16.88;;;18.70;94.80;;;;;;4976902;28;20131;-87
2021/06/08 01:58:25;;;;;;;23.40;17.02;;;18.60;94.70;;;;;;4976412;28;20027;-88
2021/06/08 02:01:28;;;;;;;25.65;17.20;;;18.70;94.70;;;;;;4976299;28;20113;-87
2021/06/08 02:08:07;;;;;;;25.85;17.30;;;18.70;94.80;;;;;;4924678;28;20556;-87
2021/06/08 02:10:59;;;;;;;23.20;16.98;;;18.60;94.70;;;;;;4989910;28;20023;-87
2021/06/08 02:14:08;;;;;;;24.17;17.17;;;18.60;94.70;;;;;;4952433;28;20123;-87
2021/06/08 02:17:03;;;;;;;25.35;17.23;;;18.60;94.70;;;;;;4987025;28;20398;-87
2021/06/08 02:19:39;;;;;;;23.52;17.70;;;18.50;94.70;;;;;;4988336;28;20015;-87
2021/06/08 02:22:25;;;;;;;24.13;17.73;;;18.50;94.70;;;;;;4954468;28;20025;-87
2021/06/08 02:24:56;;;;;;;30.05;17.08;;;18.40;94.60;;;;;;4976115;28;20106;-87
2021/06/08 02:27:27;;;;;;;28.02;18.95;;;18.40;94.60;;;;;;4976074;28;20034;-87
2021/06/08 02:30:08;;;;;;;25.25;18.10;;;18.30;94.60;;;;;;4955281;28;20050;-87
2021/06/08 02:32:34;;;;;;;26.58;18.85;;;18.30;94.50;;;;;;4951434;29;20452;-88
2021/06/08 02:35:01;;;;;;;25.52;18.60;;;18.20;94.50;;;;;;4970089;28;20122;-88
2021/06/08 02:37:27;;;;;;;25.40;18.52;;;18.20;94.60;;;;;;4987929;28;20030;-88
2021/06/08 02:39:55;;;;;;;28.17;18.83;;;18.10;94.50;;;;;;4956869;28;20020;-87
2021/06/08 02:42:23;;;;;;;26.77;19.30;;;18.10;94.50;;;;;;4988410;28;20027;-88
2021/06/08 02:44:50;;;;;;;29.40;19.65;;;18.00;94.50;;;;;;4956762;28;20023;-87
2021/06/08 02:47:58;;;;;;;27.63;18.67;;;18.00;94.50;;;;;;4955989;29;20027;-88
2021/06/08 03:05:21;;;;;;;36.45;22.13;;;17.70;94.50;;;;;;4946709;28;20093;-88
2021/06/08 03:21:44;;;;;;;33.05;21.35;;;17.60;94.80;;;;;;4804422;29;20060;-87
2021/06/08 03:24:14;;;;;;;35.65;23.58;;;17.60;94.80;;;;;;4915422;29;20047;-88
2021/06/08 03:26:42;;;;;;;33.13;23.10;;;17.60;94.80;;;;;;4955733;28;20118;-87
2021/06/08 03:29:11;;;;;;;35.40;23.17;;;17.60;94.80;;;;;;4965521;28;20035;-88
2021/06/08 03:31:40;;;;;;;33.63;22.60;;;17.60;94.80;;;;;;4954069;29;20047;-88
2021/06/08 03:34:06;;;;;;;33.05;22.23;;;17.60;94.80;;;;;;4955703;28;20082;-89
2021/06/08 03:36:33;;;;;;;31.98;22.33;;;17.70;94.80;;;;;;4955628;28;20042;-89
2021/06/08 03:39:00;;;;;;;37.05;23.17;;;17.70;94.90;;;;;;4954282;29;20023;-89
2021/06/08 03:41:29;;;;;;;36.42;23.60;;;17.70;94.90;;;;;;4951356;28;20020;-88
2021/06/08 03:43:55;;;;;;;35.70;23.25;;;17.70;94.90;;;;;;4955042;28;20051;-88
2021/06/08 03:46:25;;;;;;;33.97;22.35;;;17.70;94.90;;;;;;4954547;29;20023;-88
2021/06/08 03:48:57;;;;;;;37.22;22.60;;;17.70;94.90;;;;;;4986921;28;20122;-88
2021/06/08 03:51:28;;;;;;;39.55;24.85;;;17.80;95.00;;;;;;4954793;28;20023;-87
2021/06/08 03:53:54;;;;;;;34.75;24.42;;;17.80;95.00;;;;;;4955236;28;20031;-87
2021/06/08 03:56:23;;;;;;;34.75;22.58;;;17.90;95.00;;;;;;4953994;29;20031;-87
2021/06/08 04:04:12;;;;;;;33.72;24.13;;;18.00;95.10;;;;;;5270355;23;20063;-88
2021/06/08 04:06:56;;;;;;;;;;;;;;;;;;;;;
2021/06/08 04:13:26;;;;;;;32.92;23.02;;;18.10;95.00;;;;;;4931721;29;20051;-88
2021/06/08 04:16:18;;;;;;;34.20;24.05;;;18.10;95.00;;;;;;4953579;29;20031;-88
2021/06/08 04:18:44;;;;;;;30.30;21.58;;;18.10;94.90;;;;;;4954934;28;20511;-86
2021/06/08 04:21:10;;;;;;;34.10;22.25;;;18.20;95.00;;;;;;4954168;29;20035;-87
2021/06/08 04:23:36;;;;;;;34.38;23.98;;;18.20;95.10;;;;;;4954780;29;20022;-86
2021/06/08 04:26:03;;;;;;;34.00;23.73;;;18.30;95.00;;;;;;4954901;29;20027;-86
2021/06/08 04:28:38;;;;;;;33.70;22.85;;;18.30;95.00;;;;;;4954185;28;20098;-86
2021/06/08 04:31:04;;;;;;;31.10;21.40;;;18.30;95.00;;;;;;4954645;29;20035;-86
2021/06/08 04:33:30;;;;;;;31.83;21.90;;;18.30;95.00;;;;;;4955015;29;20387;-86
2021/06/08 04:35:56;;;;;;;33.00;22.55;;;18.40;94.90;;;;;;4953382;28;20487;-88
2021/06/08 04:38:23;;;;;;;35.70;24.73;;;18.40;95.00;;;;;;4953540;28;20031;-88
2021/06/08 04:40:51;;;;;;;32.63;23.25;;;18.40;94.90;;;;;;4956651;28;20027;-88
2021/06/08 04:43:22;;;;;;;36.05;23.55;;;18.40;94.90;;;;;;4954105;29;20094;-88
2021/06/08 04:45:48;;;;;;;32.03;22.65;;;18.40;95.00;;;;;;4950006;29;20050;-88
2021/06/08 04:48:55;;;;;;;;;;;;;;;;;;;;;
2021/06/08 04:51:57;;;;;;;28.58;20.45;;;18.50;95.10;;;;;;4953530;29;20031;-88
2021/06/08 04:58:06;;;;;;;31.40;23.30;;;18.80;95.30;;;;;;4866720;29;20126;-88
2021/06/08 05:01:17;;;;;;;32.20;22.70;;;18.80;95.00;;;;;;4929572;29;20602;-88
2021/06/08 05:03:47;;;;;;;32.45;21.77;;;18.90;95.20;;;;;;4932813;29;20452;-89
2021/06/08 05:06:27;;;;;;;29.65;21.00;;;19.00;95.10;;;;;;4933092;29;20066;-88
2021/06/08 05:08:57;;;;;;;30.25;22.33;;;19.00;95.10;;;;;;4932670;29;20028;-89
2021/06/08 05:11:46;;;;;;;29.63;22.42;;;19.10;95.10;;;;;;4928975;29;20048;-88
2021/06/08 05:14:14;;;;;;;32.40;22.40;;;19.10;95.00;;;;;;4928773;29;20036;-89
2021/06/08 05:16:51;;;;;;;29.48;21.33;;;19.10;95.00;;;;;;4932790;29;20111;-87
2021/06/08 05:19:20;;;;;;;34.78;24.05;;;19.20;95.00;;;;;;4924971;29;20036;-85
2021/06/08 05:21:49;;;;;;;29.25;22.08;;;19.20;95.00;;;;;;4945700;29;20028;-85
2021/06/08 05:24:16;;;;;;;30.60;20.77;;;19.20;94.90;;;;;;4934934;29;20016;-83
2021/06/08 05:26:45;;;;;;;30.35;21.40;;;19.20;94.80;;;;;;4935046;29;20023;-82
2021/06/08 05:29:11;;;;;;;29.17;20.58;;;19.20;94.90;;;;;;4935483;29;20420;-82
2021/06/08 05:31:37;;;;;;;27.10;20.58;;;19.30;94.90;;;;;;4935656;29;20400;-82
2021/06/08 05:34:03;;;;;;;29.48;21.23;;;19.30;94.90;;;;;;4939334;29;20035;-86
2021/06/08 05:36:34;;;;;;;29.13;20.45;;;19.30;95.00;;;;;;4938265;29;20486;-86
2021/06/08 05:39:01;;;;;;;27.30;19.83;;;19.40;95.00;;;;;;4935443;29;20472;-85
2021/06/08 05:41:27;;;;;;;23.85;17.80;;;19.40;95.00;;;;;;4935671;29;20055;-87
2021/06/08 05:43:53;;;;;;;24.40;18.80;;;19.40;95.10;;;;;;4934646;29;20028;-86
2021/06/08 05:46:19;;;;;;;24.08;17.42;;;19.40;95.00;;;;;;4937353;29;20493;-93
2021/06/08 05:48:45;;;;;;;26.08;18.75;;;19.50;95.10;;;;;;4934084;29;20028;-84
2021/06/08 05:51:11;;;;;;;21.55;17.63;;;19.60;94.90;;;;;;4935396;29;20068;-83
2021/06/08 05:53:44;;;;;;;21.65;17.02;;;19.60;94.90;;;;;;4936614;29;20095;-83
2021/06/08 05:56:10;;;;;;;23.90;16.27;;;19.60;94.90;;;;;;4938248;29;20107;-84
2021/06/08 05:58:36;;;;;;;23.15;16.83;;;19.70;94.90;;;;;;4937914;29;20111;-83
2021/06/08 06:01:07;;;;;;;22.60;15.18;;;19.70;95.00;;;;;;4938080;29;20055;-84
2021/06/08 06:03:34;;;;;;;21.42;16.52;;;19.70;95.00;;;;;;4943568;29;20388;-84
2021/06/08 06:06:01;;;;;;;20.33;15.05;;;19.70;94.90;;;;;;4957156;29;20019;-84
2021/06/08 06:08:46;;;;;;;19.65;14.40;;;19.80;94.90;;;;;;4956941;29;20058;-87
2021/06/08 06:11:16;;;;;;;20.35;15.05;;;19.90;95.00;;;;;;4952954;29;20098;-84
2021/06/08 06:13:49;;;;;;;21.92;15.75;;;19.90;94.90;;;;;;4956782;29;20130;-84
2021/06/08 06:16:19;;;;;;;22.08;13.95;;;19.80;94.50;;;;;;4956866;29;20016;-84
2021/06/08 06:18:45;;;;;;;20.17;15.18;;;19.90;94.80;;;;;;4956940;29;20574;-83
2021/06/08 06:21:12;;;;;;;19.65;13.45;;;19.90;94.80;;;;;;4956972;29;20110;-83
2021/06/08 06:23:39;;;;;;;20.42;14.25;;;20.00;94.80;;;;;;4963668;28;20040;-83
2021/06/08 06:26:05;;;;;;;18.92;13.43;;;20.00;94.90;;;;;;4974875;28;20447;-82
2021/06/08 06:28:31;;;;;;;20.67;14.38;;;20.00;94.90;;;;;;4956940;28;20372;-82
2021/06/08 06:30:57;;;;;;;19.67;13.10;;;20.10;95.00;;;;;;4956903;29;20082;-82
2021/06/08 06:33:23;;;;;;;20.50;14.88;;;20.20;95.10;;;;;;4958047;28;20031;-82
2021/06/08 06:35:50;;;;;;;19.95;14.50;;;20.20;95.00;;;;;;4956495;29;20023;-82
2021/06/08 06:38:17;;;;;;;22.83;13.75;;;20.30;94.90;;;;;;4956318;29;20031;-83
2021/06/08 06:40:45;;;;;;;19.20;13.13;;;20.40;94.90;;;;;;4961519;28;20034;-82
2021/06/08 06:43:27;;;;;;;20.70;14.32;;;20.40;94.90;;;;;;4943525;28;20078;-84
2021/06/08 06:45:53;;;;;;;133.82;22.90;;;20.40;94.70;;;;;;4938594;29;20028;-83
2021/06/08 06:48:20;;;;;;;42.65;15.30;;;20.50;94.90;;;;;;4956498;29;20115;-83
2021/06/08 06:50:47;;;;;;;23.33;13.00;;;20.50;95.30;;;;;;4957995;28;20551;-83
2021/06/08 06:53:16;;;;;;;16.23;12.07;;;20.60;95.00;;;;;;4956667;29;20035;-83
2021/06/08 06:55:42;;;;;;;19.30;13.30;;;20.70;95.00;;;;;;4956738;29;20035;-83
2021/06/08 06:58:11;;;;;;;16.70;12.00;;;20.70;94.90;;;;;;4956561;29;20039;-83
2021/06/08 07:00:36;;;;;;;20.58;13.45;;;20.80;94.80;;;;;;4956240;29;20027;-83
2021/06/08 07:03:04;;;;;;;16.05;11.50;;;20.80;94.90;;;;;;4956197;29;20019;-83
2021/06/08 07:05:32;;;;;;;16.25;11.30;;;20.90;95.00;;;;;;4955380;28;20038;-83
2021/06/08 07:08:01;;;;;;;16.65;11.38;;;21.00;94.90;;;;;;4939176;29;20023;-83
2021/06/08 07:10:27;;;;;;;16.63;11.80;;;20.90;94.80;;;;;;4954887;29;20090;-83
2021/06/08 07:12:55;;;;;;;16.80;11.88;;;21.00;94.80;;;;;;4956175;29;20055;-83
2021/06/08 07:15:27;;;;;;;15.02;11.15;;;21.10;94.90;;;;;;4955995;29;20371;-83
2021/06/08 07:17:54;;;;;;;16.08;11.05;;;21.20;94.90;;;;;;4955853;29;20519;-83
2021/06/08 07:20:20;;;;;;;15.68;10.95;;;21.20;94.90;;;;;;4955837;29;20023;-83
2021/06/08 07:22:47;;;;;;;16.58;12.40;;;21.30;95.00;;;;;;4956044;29;20035;-82
2021/06/08 07:25:16;;;;;;;19.63;12.18;;;21.40;94.90;;;;;;4955533;29;20027;-83
2021/06/08 07:27:41;;;;;;;16.40;12.23;;;21.40;94.80;;;;;;4956291;29;20070;-83
2021/06/08 07:30:12;;;;;;;22.63;12.20;;;21.40;94.70;;;;;;4955694;29;20031;-83
2021/06/08 07:32:53;;;;;;;21.45;12.05;;;21.40;94.60;;;;;;4955821;29;20086;-83
2021/06/08 07:35:36;;;;;;;22.00;11.57;;;21.50;94.70;;;;;;4951055;29;20475;-82
2021/06/08 07:38:08;;;;;;;18.27;12.00;;;21.50;94.90;;;;;;4955928;29;20039;-83
2021/06/08 07:40:39;;;;;;;15.45;11.60;;;21.60;94.90;;;;;;4956898;28;20431;-83
2021/06/08 07:43:06;;;;;;;16.60;10.73;;;21.70;95.00;;;;;;4955577;29;20371;-83
2021/06/08 07:45:39;;;;;;;15.32;11.18;;;21.80;94.90;;;;;;4955698;29;20455;-83
2021/06/08 07:48:08;;;;;;;16.87;10.80;;;21.80;94.90;;;;;;4955222;29;20102;-83
2021/06/08 07:50:37;;;;;;;16.45;11.45;;;22.00;95.00;;;;;;4955422;29;20019;-83
2021/06/08 07:53:04;;;;;;;15.38;11.20;;;22.00;94.80;;;;;;4940989;28;20443;-83
2021/06/08 07:55:34;;;;;;;16.60;10.52;;;22.10;95.00;;;;;;4957087;28;20492;-83
2021/06/08 07:58:00;;;;;;;16.33;10.80;;;22.20;95.00;;;;;;4951198;29;20035;-84
2021/06/08 08:00:26;;;;;;;14.18;10.23;;;22.30;94.90;;;;;;4954862;29;20094;-84
2021/06/08 08:02:54;;;;;;;14.85;9.77;;;22.30;94.90;;;;;;4954972;29;20031;-84
2021/06/08 08:05:23;;;;;;;28.10;13.20;;;22.40;95.00;;;;;;4959543;28;20035;-84
2021/06/08 08:07:49;;;;;;;144.50;25.60;;;22.50;94.80;;;;;;4954587;29;20491;-84
2021/06/08 08:10:15;;;;;;;17.75;10.70;;;22.50;94.90;;;;;;4955527;29;20114;-84
2021/06/08 08:12:45;;;;;;;17.42;10.60;;;22.60;94.90;;;;;;4956336;28;20066;-84
2021/06/08 08:15:11;;;;;;;16.45;10.10;;;22.70;94.90;;;;;;4954704;29;20026;-84
2021/06/08 08:17:38;;;;;;;15.55;9.68;;;22.80;95.00;;;;;;4959263;28;20019;-83
2021/06/08 08:20:09;;;;;;;23.30;11.15;;;22.90;94.90;;;;;;4955767;28;20059;-84
2021/06/08 08:22:35;;;;;;;15.75;9.25;;;22.90;95.00;;;;;;4954934;29;20037;-84
2021/06/08 08:25:01;;;;;;;13.27;9.07;;;23.10;95.20;;;;;;4957581;28;20034;-85
2021/06/08 08:27:26;;;;;;;14.13;9.13;;;23.20;95.30;;;;;;4938492;28;20027;-85
2021/06/08 08:29:52;;;;;;;13.20;8.88;;;23.40;95.40;;;;;;4953562;28;20027;-85
2021/06/08 08:32:18;;;;;;;14.05;9.00;;;23.60;95.20;;;;;;4954423;29;20472;-85
2021/06/08 08:34:44;;;;;;;22.48;10.95;;;23.70;95.20;;;;;;4956754;28;20150;-86
2021/06/08 08:37:10;;;;;;;15.52;10.55;;;23.80;95.00;;;;;;4937333;29;20027;-86
2021/06/08 08:39:38;;;;;;;13.95;9.25;;;23.90;94.70;;;;;;4954452;29;20019;-85
2021/06/08 08:42:07;;;;;;;14.48;8.57;;;23.90;95.00;;;;;;4937381;29;20074;-85
2021/06/08 08:44:33;;;;;;;13.27;8.35;;;24.00;95.00;;;;;;4954288;29;20024;-84
2021/06/08 08:46:58;;;;;;;13.40;8.70;;;24.20;95.10;;;;;;4952856;28;20027;-84
2021/06/08 08:49:26;;;;;;;15.30;7.97;;;24.30;94.90;;;;;;4954960;28;20020;-85
2021/06/08 08:51:53;;;;;;;14.63;10.38;;;24.30;94.90;;;;;;4959182;28;20039;-84
2021/06/08 08:54:20;;;;;;;13.55;9.25;;;24.40;94.70;;;;;;4954368;29;20419;-85
2021/06/08 08:56:48;;;;;;;13.93;8.43;;;24.40;94.70;;;;;;4954586;29;20031;-85
2021/06/08 08:59:16;;;;;;;12.35;8.60;;;24.50;94.90;;;;;;4954246;29;20356;-83
2021/06/08 09:01:46;;;;;;;15.77;9.02;;;24.60;94.90;;;;;;4959024;28;20027;-82
2021/06/08 09:04:13;;;;;;;13.98;8.38;;;24.70;94.70;;;;;;4953566;28;20043;-82
2021/06/08 09:06:39;;;;;;;12.95;7.65;;;24.80;94.60;;;;;;4955416;28;20024;-83
2021/06/08 09:09:08;;;;;;;13.02;7.53;;;24.80;94.70;;;;;;4954192;29;20020;-82
2021/06/08 09:11:40;;;;;;;12.75;7.20;;;24.90;94.70;;;;;;4954128;29;20071;-82
2021/06/08 09:14:07;;;;;;;11.88;7.55;;;25.00;94.90;;;;;;4954047;29;20387;-82
2021/06/08 09:16:33;;;;;;;13.00;8.38;;;25.20;95.00;;;;;;4954232;29;20038;-81
2021/06/08 09:19:07;;;;;;;12.07;7.43;;;25.30;95.10;;;;;;4954216;29;20027;-81
2021/06/08 09:21:38;;;;;;;13.25;7.70;;;25.50;95.00;;;;;;4954200;29;20027;-82
2021/06/08 09:24:27;;;;;;;12.48;7.20;;;25.70;95.30;;;;;;4969571;28;20035;-83
2021/06/08 09:26:58;;;;;;;11.43;7.68;;;25.90;94.90;;;;;;4937294;28;20035;-83
2021/06/08 09:29:34;;;;;;;11.77;7.95;;;26.00;94.80;;;;;;4957506;29;20027;-83
2021/06/08 09:32:20;;;;;;;11.82;6.90;;;26.10;94.80;;;;;;4958196;29;20524;-84
2021/06/08 09:34:46;;;;;;;12.88;6.68;;;26.30;94.90;;;;;;4938330;29;20023;-84
2021/06/08 09:37:13;;;;;;;12.15;7.10;;;26.40;94.80;;;;;;4940708;29;20031;-85
2021/06/08 09:39:48;;;;;;;11.23;7.78;;;26.40;94.70;;;;;;4957774;29;20503;-85
2021/06/08 09:42:32;;;;;;;14.52;7.38;;;26.60;94.60;;;;;;4960312;28;20027;-84
2021/06/08 09:45:12;;;;;;;9.77;6.33;;;26.70;94.90;;;;;;4957597;29;20019;-85
2021/06/08 09:47:40;;;;;;;10.85;6.47;;;26.90;94.90;;;;;;4957429;29;20019;-85
2021/06/08 09:50:39;;;;;;;10.13;6.40;;;27.00;94.90;;;;;;4957366;29;20098;-85
2021/06/08 09:53:29;;;;;;;11.50;6.80;;;27.10;94.60;;;;;;4952614;29;20504;-85
2021/06/08 09:56:04;;;;;;;10.73;6.43;;;27.10;94.40;;;;;;4957173;29;20027;-85
2021/06/08 09:58:31;;;;;;;10.85;6.47;;;27.00;94.10;;;;;;4957173;29;20510;-84
2021/06/08 10:01:08;;;;;;;11.95;6.78;;;27.00;94.30;;;;;;4957585;29;20475;-85
2021/06/08 10:03:35;;;;;;;11.55;7.18;;;27.10;94.60;;;;;;4956090;29;20042;-85
2021/06/08 10:06:09;;;;;;;13.75;7.03;;;27.30;94.70;;;;;;4958823;29;20031;-85
2021/06/08 10:08:37;;;;;;;9.55;6.05;;;27.20;94.20;;;;;;4941812;29;20476;-86
2021/06/08 10:11:03;;;;;;;12.65;6.82;;;27.30;94.60;;;;;;4955924;29;20172;-86
2021/06/08 10:13:29;;;;;;;9.63;6.20;;;27.30;94.40;;;;;;4957114;29;20427;-86
2021/06/08 10:15:57;;;;;;;13.25;6.70;;;27.30;94.40;;;;;;4957214;29;20027;-87
2021/06/08 10:18:39;;;;;;;10.60;6.30;;;27.50;94.70;;;;;;4939852;29;20558;-86
2021/06/08 10:21:05;;;;;;;12.48;7.72;;;27.70;94.80;;;;;;4957153;29;20023;-86
2021/06/08 10:23:33;;;;;;;11.75;6.90;;;27.90;94.70;;;;;;4957142;29;20082;-87
2021/06/08 10:26:02;;;;;;;10.65;5.97;;;28.00;94.70;;;;;;4956736;29;20098;-87
2021/06/08 10:28:29;;;;;;;10.63;6.40;;;28.20;94.70;;;;;;4956838;29;20349;-85
2021/06/08 10:30:57;;;;;;;10.65;6.40;;;28.20;94.30;;;;;;4939918;29;20066;-85
2021/06/08 10:33:24;;;;;;;10.63;6.40;;;28.30;94.50;;;;;;4956895;29;20023;-85
2021/06/08 10:35:51;;;;;;;11.70;6.60;;;28.40;94.50;;;;;;4939511;29;20026;-85
2021/06/08 10:38:18;;;;;;;11.02;6.25;;;28.50;94.40;;;;;;4956390;28;20024;-84
2021/06/08 10:40:48;;;;;;;10.35;7.10;;;28.60;94.40;;;;;;4956580;29;20102;-84
2021/06/08 10:43:21;;;;;;;10.73;6.90;;;28.80;94.80;;;;;;4955335;29;20379;-84
2021/06/08 10:45:50;;;;;;;11.35;6.65;;;29.10;94.80;;;;;;4939513;29;20031;-85
2021/06/08 10:48:20;;;;;;;10.20;6.60;;;29.30;95.00;;;;;;4939574;29;20376;-84
2021/06/08 10:50:49;;;;;;;11.65;6.85;;;29.40;94.40;;;;;;4953879;28;20058;-85
2021/06/08 10:53:34;;;;;;;10.52;6.53;;;29.50;94.40;;;;;;4956754;29;20031;-85
2021/06/08 10:56:01;;;;;;;11.18;6.90;;;29.60;94.20;;;;;;4942045;29;20031;-86
2021/06/08 10:58:54;;;;;;;11.80;7.60;;;29.50;93.70;;;;;;4939511;29;20152;-87
2021/06/08 11:01:42;;;;;;;10.60;7.18;;;29.40;93.40;;;;;;4956038;29;20066;-85
2021/06/08 11:04:23;;;;;;;12.93;6.90;;;29.30;93.80;;;;;;4951946;28;20044;-85
2021/06/08 11:06:57;;;;;;;12.10;7.43;;;29.60;94.50;;;;;;4936126;29;20468;-85
2021/06/08 11:09:23;;;;;;;10.95;6.93;;;29.90;94.70;;;;;;4933444;29;20475;-85
2021/06/08 11:12:28;;;;;;;;;;;;;;;;;;;;;
2021/06/08 11:15:21;;;;;;;45.17;9.75;;;30.90;95.60;;;;;;4894316;29;21105;-86
2021/06/08 11:17:57;;;;;;;10.93;7.05;;;31.20;94.30;;;;;;4905293;29;20488;-86
2021/06/08 11:20:45;;;;;;;11.10;6.97;;;31.10;93.30;;;;;;4945966;29;20028;-86
2021/06/08 11:23:34;;;;;;;11.05;7.70;;;30.90;93.20;;;;;;4936096;29;20032;-85
2021/06/08 11:26:40;;;;;;;12.35;6.85;;;30.80;92.90;;;;;;4951167;29;20036;-86
2021/06/08 11:29:07;;;;;;;11.40;6.70;;;30.70;92.80;;;;;;4934855;29;20030;-86
2021/06/08 11:31:50;;;;;;;9.85;5.95;;;30.60;92.70;;;;;;4936601;29;20387;-86
2021/06/08 11:34:16;;;;;;;9.35;5.80;;;30.40;92.30;;;;;;4952009;28;20027;-85
2021/06/08 11:36:51;;;;;;;9.35;5.40;;;30.20;92.50;;;;;;4951412;29;20035;-85
2021/06/08 11:42:05;;;;;;;9.18;5.20;;;29.70;91.30;;;;;;4935756;29;20027;-87
2021/06/08 11:44:31;;;;;;;11.45;4.10;;;29.20;90.60;;;;;;4934650;29;20032;-85
2021/06/08 11:46:59;;;;;;;9.88;3.47;;;28.70;90.20;;;;;;4936142;29;20079;-85
2021/06/08 11:49:25;;;;;;;8.75;3.28;;;28.10;89.30;;;;;;4954386;28;20031;-86
2021/06/08 11:52:01;;;;;;;10.25;3.38;;;27.40;90.00;;;;;;4950113;28;20084;-85
2021/06/08 11:54:30;;;;;;;9.82;3.33;;;26.90;90.00;;;;;;4935733;29;20031;-86
2021/06/08 11:57:01;;;;;;;9.77;3.70;;;26.50;90.40;;;;;;4935414;29;20039;-85
2021/06/08 11:59:45;;;;;;;8.25;3.60;;;26.30;90.90;;;;;;4934132;29;20515;-85
2021/06/08 12:02:31;;;;;;;9.60;3.85;;;26.00;91.00;;;;;;4932121;29;20111;-86
2021/06/08 12:05:24;;;;;;;9.05;4.03;;;25.80;91.30;;;;;;4930214;29;20035;-84
2021/06/08 12:08:05;;;;;;;13.73;4.30;;;25.60;91.30;;;;;;4939085;29;20136;-87
2021/06/08 12:10:48;;;;;;;12.98;3.90;;;25.50;91.50;;;;;;4965664;28;20023;-86
2021/06/08 12:13:20;;;;;;;10.10;4.40;;;25.40;91.80;;;;;;4934360;29;20040;-86
2021/06/08 12:15:51;;;;;;;10.15;4.00;;;25.30;91.50;;;;;;4935575;29;20039;-86
2021/06/08 12:18:28;;;;;;;8.35;3.95;;;25.20;91.60;;;;;;4934206;29;20055;-86
2021/06/08 12:20:54;;;;;;;8.55;4.03;;;25.10;91.70;;;;;;4936787;28;20023;-85
2021/06/08 12:23:34;;;;;;;8.35;4.40;;;25.00;91.80;;;;;;4935532;29;20020;-86
2021/06/08 12:26:09;;;;;;;8.50;4.40;;;24.80;91.50;;;;;;4932244;29;20035;-85
2021/06/08 12:28:42;;;;;;;7.88;3.70;;;24.70;92.10;;;;;;4935518;29;20067;-85
2021/06/08 12:31:18;;;;;;;8.70;4.38;;;24.70;92.30;;;;;;4934375;29;20031;-86
2021/06/08 12:33:45;;;;;;;9.55;3.88;;;24.80;92.70;;;;;;4935344;29;20046;-86
2021/06/08 12:36:11;;;;;;;10.50;4.82;;;25.00;93.10;;;;;;4934387;29;20484;-86
2021/06/08 12:38:45;;;;;;;10.38;4.85;;;25.10;92.60;;;;;;4933839;29;20057;-86
2021/06/08 12:41:12;;;;;;;9.55;4.40;;;25.10;92.70;;;;;;4937467;29;20027;-85
2021/06/08 12:43:41;;;;;;;10.05;4.70;;;25.30;93.30;;;;;;4935247;29;20389;-85
2021/06/08 12:46:07;;;;;;;9.18;5.05;;;25.50;93.10;;;;;;4934826;29;20055;-86
2021/06/08 12:48:33;;;;;;;137.73;19.10;;;25.80;93.40;;;;;;4935661;29;20053;-85
2021/06/08 12:50:59;;;;;;;188.55;27.55;;;26.10;93.80;;;;;;4935063;29;20473;-85
2021/06/08 12:53:27;;;;;;;24.27;6.63;;;26.60;94.80;;;;;;4935292;29;20024;-85
2021/06/08 12:55:55;;;;;;;35.05;9.25;;;27.30;95.30;;;;;;4935277;29;20083;-85
2021/06/08 12:58:21;;;;;;;15.25;6.65;;;28.20;95.60;;;;;;4934021;29;20020;-85
2021/06/08 13:00:50;;;;;;;10.27;5.35;;;28.90;95.50;;;;;;4935333;29;20030;-85
2021/06/08 13:03:16;;;;;;;9.52;5.35;;;29.70;95.70;;;;;;4938574;29;20035;-86
2021/06/08 13:05:42;;;;;;;9.52;5.55;;;30.60;95.60;;;;;;4957112;28;20483;-90
2021/06/08 13:08:20;;;;;;;9.90;4.80;;;31.10;94.10;;;;;;4958080;28;20039;-86
2021/06/08 13:10:46;;;;;;;8.73;4.78;;;31.60;94.50;;;;;;4940971;29;20063;-85
2021/06/08 13:13:14;;;;;;;8.38;4.53;;;31.80;92.50;;;;;;4957857;29;20031;-86
2021/06/08 13:15:42;;;;;;;10.32;5.30;;;31.40;90.80;;;;;;4954197;29;20023;-86
2021/06/08 13:18:20;;;;;;;11.80;5.70;;;30.80;90.70;;;;;;4956815;28;20020;-86
2021/06/08 13:21:08;;;;;;;9.48;5.53;;;30.40;90.80;;;;;;4957657;29;20034;-87
2021/06/08 13:23:34;;;;;;;9.23;5.18;;;29.90;90.80;;;;;;4940352;29;20023;-87
2021/06/08 13:26:05;;;;;;;10.52;5.95;;;29.50;90.90;;;;;;4956633;29;20025;-86
2021/06/08 13:28:33;;;;;;;10.65;5.88;;;29.30;90.90;;;;;;4958089;29;20464;-86
2021/06/08 13:31:19;;;;;;;9.30;5.72;;;28.80;90.50;;;;;;4957597;29;20068;-86
2021/06/08 13:33:47;;;;;;;9.90;5.63;;;28.40;90.90;;;;;;4955863;29;20041;-86
2021/06/08 13:36:35;;;;;;;12.05;6.25;;;28.10;90.90;;;;;;4958391;29;20023;-86
2021/06/08 13:39:21;;;;;;;10.70;6.75;;;27.70;90.60;;;;;;4957862;29;20022;-86
2021/06/08 13:41:52;;;;;;;11.20;6.78;;;27.40;91.40;;;;;;4956679;28;20023;-86
2021/06/08 13:44:18;;;;;;;74.38;13.32;;;27.30;91.70;;;;;;4940067;29;20027;-86